Time;durP1;ratioP1;P1;durP2;ratioP2;P2;SDS_P1;SDS_P2;PMS_P1;PMS_P2;Temp;Humidity;BMP_temperature;BMP_pressure;BME280_temperature;BME280_humidity;BME280_pressure;Samples;Min_cycle;Max_cycle;Signal;HPM_P1;HPM_P2
2022/07/23 00:01:17;;;;;;;;;;;22.00;61.80;;;21.42;57.37;96420.66;4234217;33;19910;-82
2022/07/23 00:03:45;;;;;;;;;;;22.00;61.90;;;21.43;57.37;96421.47;4210598;33;20307;-82
2022/07/23 00:06:16;;;;;;;;;;;22.00;61.80;;;21.42;57.38;96412.31;4235079;33;20125;-83
2022/07/23 00:08:44;;;;;;;;;;;22.00;61.80;;;21.42;57.37;96414.31;4234384;33;19910;-83
2022/07/23 00:11:13;;;;;;;;;;;22.00;61.90;;;21.42;57.45;96419.88;4233680;33;20137;-84
2022/07/23 00:13:41;;;;;;;;;;;22.00;62.00;;;21.41;57.43;96412.66;4233955;33;20133;-84
2022/07/23 00:16:10;;;;;;;;;;;22.00;61.90;;;21.41;57.31;96407.91;4233873;33;19910;-84
2022/07/23 00:18:38;;;;;;;;;;;22.00;61.80;;;21.40;57.52;96411.03;4233299;33;20022;-85
2022/07/23 00:21:07;;;;;;;;;;;22.00;61.90;;;21.39;57.50;96404.63;4234581;33;19909;-84
2022/07/23 00:23:37;;;;;;;;;;;22.00;61.90;;;21.39;57.43;96399.06;4233736;33;20053;-84
2022/07/23 00:26:07;;;;;;;;;;;22.00;62.00;;;21.38;57.46;96400.22;4233817;33;20131;-84
2022/07/23 00:28:36;;;;;;;;;;;22.00;61.80;;;21.39;57.06;96409.41;4233223;33;19909;-84
2022/07/23 00:31:05;;;;;;;;;;;22.00;61.60;;;21.39;57.32;96412.19;4234607;33;20086;-84
2022/07/23 00:33:33;;;;;;;;;;;22.00;61.80;;;21.38;57.34;96408.56;4210162;33;19909;-84
2022/07/23 00:36:02;;;;;;;;;;;22.00;61.90;;;21.38;57.29;96408.56;4234451;33;19917;-84
2022/07/23 00:38:30;;;;;;;;;;;21.90;61.80;;;21.38;57.36;96414.13;4232979;33;20130;-83
2022/07/23 00:41:01;;;;;;;;;;;22.00;61.80;;;21.38;57.36;96413.31;4233598;33;20104;-84
2022/07/23 00:43:29;;;;;;;;;;;22.00;61.80;;;21.36;57.39;96399.75;4234646;33;20083;-83
2022/07/23 00:45:58;;;;;;;;;;;22.00;61.80;;;21.36;57.30;96410.06;4234557;33;20056;-84
2022/07/23 00:48:26;;;;;;;;;;;22.00;62.70;;;21.37;57.26;96406.13;4209617;33;20137;-83
2022/07/23 00:50:55;;;;;;;;;;;22.00;61.80;;;21.37;57.32;96411.69;4233556;33;20138;-84
2022/07/23 00:53:23;;;;;;;;;;;22.00;61.80;;;21.36;57.28;96410.06;4232932;33;20284;-84
2022/07/23 00:55:52;;;;;;;;;;;21.90;61.80;;;21.35;57.08;96406.47;4233395;33;20121;-83
2022/07/23 00:58:22;;;;;;;;;;;21.90;62.00;;;21.35;57.36;96400.91;4232918;33;20149;-84
2022/07/23 01:00:50;;;;;;;;;;;21.90;61.90;;;21.34;57.35;96404.00;4233121;33;19903;-82
2022/07/23 01:03:19;;;;;;;;;;;21.90;61.80;;;21.34;57.36;96401.22;4233574;33;20344;-84
2022/07/23 01:05:47;;;;;;;;;;;21.90;61.90;;;21.33;57.26;96406.00;4209890;33;20108;-83
2022/07/23 01:08:17;;;;;;;;;;;21.90;61.80;;;21.33;57.44;96411.56;4209514;33;19902;-82
2022/07/23 01:10:45;;;;;;;;;;;21.90;61.70;;;21.33;57.21;96406.00;4233289;33;19902;-83
2022/07/23 01:13:14;;;;;;;;;;;21.90;61.70;;;21.33;57.19;96405.16;4233353;33;20297;-83
2022/07/23 01:15:44;;;;;;;;;;;21.90;61.80;;;21.32;57.14;96409.91;4233408;33;20178;-83
2022/07/23 01:18:13;;;;;;;;;;;21.90;61.70;;;21.32;57.13;96409.91;4232719;33;19918;-83
2022/07/23 01:20:42;;;;;;;;;;;21.90;61.80;;;21.31;57.26;96411.06;4233178;33;19907;-82
2022/07/23 01:23:12;;;;;;;;;;;21.90;61.80;;;21.31;57.37;96413.84;4233333;33;19910;-82
2022/07/23 01:25:50;;;;;;;;;;;21.90;61.90;;;21.30;57.24;96412.22;4233266;33;20149;-82
2022/07/23 01:28:19;;;;;;;;;;;21.90;61.80;;;21.30;57.31;96406.66;4232678;33;19902;-83
2022/07/23 01:30:47;;;;;;;;;;;21.90;61.80;;;21.30;57.53;96412.22;4209752;33;19902;-83
2022/07/23 01:33:16;;;;;;;;;;;21.90;61.80;;;21.30;57.24;96409.44;4233198;33;19909;-83
2022/07/23 01:35:45;;;;;;;;;;;21.90;61.80;;;21.28;57.30;96407.00;4209571;33;19902;-83
2022/07/23 01:38:17;;;;;;;;;;;21.90;61.80;;;21.29;57.26;96410.59;4209164;33;20390;-83
2022/07/23 01:40:46;;;;;;;;;;;21.90;61.80;;;21.28;57.34;96406.16;4209390;33;19910;-83
2022/07/23 01:43:15;;;;;;;;;;;21.80;61.80;;;21.27;57.43;96410.94;4209622;33;20213;-83
2022/07/23 01:45:44;;;;;;;;;;;21.80;61.70;;;21.27;57.15;96405.38;4233117;33;20098;-83
2022/07/23 01:48:14;;;;;;;;;;;21.80;61.60;;;21.26;57.04;96400.94;4232437;33;19902;-83
2022/07/23 01:50:51;;;;;;;;;;;21.80;61.50;;;21.26;57.24;96400.09;4232515;33;20067;-84
2022/07/23 01:53:32;;;;;;;;;;;21.90;61.80;;;21.25;57.13;96399.31;4232913;33;19917;-83
2022/07/23 01:56:00;;;;;;;;;;;21.90;61.80;;;21.26;57.00;96405.69;4209429;33;20271;-83
2022/07/23 01:58:29;;;;;;;;;;;21.80;61.60;;;21.24;57.08;96403.25;4208945;33;20080;-83
2022/07/23 02:00:58;;;;;;;;;;;21.80;61.60;;;21.25;57.14;96404.03;4209185;33;19909;-83
2022/07/23 02:03:26;;;;;;;;;;;21.80;61.60;;;21.25;57.18;96412.41;4232604;33;20030;-83
2022/07/23 02:05:55;;;;;;;;;;;21.80;61.60;;;21.24;57.14;96413.53;4236134;33;20135;-83
2022/07/23 02:08:24;;;;;;;;;;;21.80;61.60;;;21.24;57.10;96410.75;4234904;33;19902;-83
2022/07/23 02:10:54;;;;;;;;;;;21.80;61.50;;;21.24;57.16;96407.97;4211740;33;20364;-84
2022/07/23 02:13:22;;;;;;;;;;;21.80;61.60;;;21.23;57.29;96403.59;4235343;33;20113;-83
2022/07/23 02:15:51;;;;;;;;;;;21.80;61.70;;;21.23;57.19;96406.38;4211352;33;20171;-83
2022/07/23 02:18:20;;;;;;;;;;;21.80;61.60;;;21.22;57.21;96411.09;4234754;33;19910;-83
2022/07/23 02:20:48;;;;;;;;;;;21.80;61.60;;;21.22;57.21;96411.09;4235207;33;19909;-83
2022/07/23 02:23:17;;;;;;;;;;;21.80;61.50;;;21.21;57.15;96411.47;4236110;33;19902;-83
2022/07/23 02:25:46;;;;;;;;;;;21.80;61.50;;;21.22;57.46;96413.09;4235150;33;19902;-83
2022/07/23 02:28:16;;;;;;;;;;;21.80;61.60;;;21.21;57.23;96414.25;4234607;33;19909;-83
2022/07/23 02:30:44;;;;;;;;;;;21.80;61.70;;;21.20;57.12;96407.84;4235105;33;20464;-83
2022/07/23 02:33:13;;;;;;;;;;;21.80;61.60;;;21.21;57.26;96417.03;4211559;33;20061;-83
2022/07/23 02:35:43;;;;;;;;;;;21.80;61.60;;;21.19;57.23;96417.34;4235238;33;19902;-83
2022/07/23 02:38:11;;;;;;;;;;;21.80;61.60;;;21.20;57.18;96418.16;4211181;33;20147;-83
2022/07/23 02:40:40;;;;;;;;;;;21.80;61.60;;;21.19;57.43;96417.34;4234962;33;20125;-82
2022/07/23 02:43:09;;;;;;;;;;;21.70;61.60;;;21.18;56.95;96412.91;4211653;33;19909;-82
2022/07/23 02:45:39;;;;;;;;;;;21.70;61.70;;;21.18;57.28;96417.69;4235903;33;19903;-83
2022/07/23 02:48:08;;;;;;;;;;;21.70;61.70;;;21.18;57.15;96417.69;4234427;33;19994;-82
2022/07/23 02:50:36;;;;;;;;;;;21.80;61.70;;;21.18;57.11;96426.03;4211310;33;19902;-82
2022/07/23 02:53:05;;;;;;;;;;;21.70;61.60;;;21.17;56.94;96424.41;4234802;33;19909;-82
2022/07/23 02:55:34;;;;;;;;;;;21.70;61.60;;;21.17;57.35;96422.44;4211276;33;19902;-83
2022/07/23 02:58:04;;;;;;;;;;;21.70;61.60;;;21.17;57.13;96421.63;4234112;33;19902;-83
2022/07/23 03:00:33;;;;;;;;;;;21.80;61.60;;;21.15;57.21;96417.19;4210245;33;19909;-82
2022/07/23 03:03:03;;;;;;;;;;;21.80;61.60;;;21.16;57.13;96420.81;4235325;33;20107;-83
2022/07/23 03:05:32;;;;;;;;;;;21.70;61.60;;;21.15;56.94;96425.56;4234860;33;19993;-83
2022/07/23 03:08:01;;;;;;;;;;;21.70;61.60;;;21.15;56.83;96422.75;4234343;33;20094;-82
2022/07/23 03:10:29;;;;;;;;;;;21.70;61.60;;;21.15;57.22;96435.88;4234533;33;19909;-83
2022/07/23 03:12:59;;;;;;;;;;;21.70;61.60;;;21.15;57.12;96441.44;4234631;33;20311;-83
2022/07/23 03:15:28;;;;;;;;;;;21.70;61.60;;;21.15;57.09;96436.69;4234242;33;19902;-83
2022/07/23 03:17:56;;;;;;;;;;;21.70;61.60;;;21.14;57.14;96443.41;4234261;33;20157;-83
2022/07/23 03:20:26;;;;;;;;;;;21.70;61.60;;;21.14;57.17;96442.59;4234412;33;19909;-83
2022/07/23 03:23:20;;;;;;;;;;;21.70;61.60;;;21.14;57.05;96445.38;4210992;33;20418;-82
2022/07/23 03:25:49;;;;;;;;;;;21.70;61.50;;;21.15;56.98;96449.81;4234576;33;19902;-83
2022/07/23 03:28:18;;;;;;;;;;;21.70;61.60;;;21.15;56.91;96456.19;4210691;33;19902;-82
2022/07/23 03:30:48;;;;;;;;;;;21.70;61.50;;;21.15;57.13;96456.19;4234474;33;20052;-83
2022/07/23 03:33:17;;;;;;;;;;;21.70;61.50;;;21.15;57.21;96455.38;4234302;33;19909;-82
2022/07/23 03:35:48;;;;;;;;;;;21.70;61.40;;;21.15;57.10;96450.59;4234469;33;20035;-83
2022/07/23 03:38:22;;;;;;;;;;;21.70;61.50;;;21.17;56.95;96453.06;4233929;33;20122;-83
2022/07/23 03:40:52;;;;;;;;;;;21.80;61.50;;;21.18;57.10;96454.69;4210736;33;20174;-83
2022/07/23 03:43:20;;;;;;;;;;;21.70;61.30;;;21.18;57.00;96449.09;4210700;33;19902;-84
2022/07/23 03:45:49;;;;;;;;;;;21.70;61.40;;;21.19;57.01;96447.16;4234538;33;19981;-83
2022/07/23 03:48:18;;;;;;;;;;;21.80;61.40;;;21.20;56.88;96451.59;4233556;33;20255;-82
2022/07/23 03:50:48;;;;;;;;;;;21.80;61.30;;;21.21;56.88;96454.03;4234072;33;20182;-83
2022/07/23 03:53:17;;;;;;;;;;;21.80;61.30;;;21.22;56.78;96454.84;4234957;33;19913;-83
2022/07/23 03:55:45;;;;;;;;;;;21.80;61.10;;;21.22;56.71;96461.22;4234410;33;19902;-83
2022/07/23 03:58:14;;;;;;;;;;;21.80;61.00;;;21.23;56.58;96456.50;4233681;33;19992;-83
2022/07/23 04:00:43;;;;;;;;;;;21.80;61.00;;;21.24;56.62;96458.09;4234979;33;20229;-83
2022/07/23 04:03:11;;;;;;;;;;;21.80;60.90;;;21.26;56.64;96456.63;4210534;33;19902;-83
2022/07/23 04:05:40;;;;;;;;;;;21.90;61.10;;;21.26;56.72;96455.78;4234180;33;19909;-83
2022/07/23 04:08:14;;;;;;;;;;;21.80;61.00;;;21.27;56.67;96458.25;4233585;33;19902;-83
2022/07/23 04:10:46;;;;;;;;;;;21.90;61.10;;;21.29;56.66;96464.31;4210477;33;19902;-82
2022/07/23 04:13:15;;;;;;;;;;;21.90;61.00;;;21.29;56.56;96463.50;4233957;33;20388;-83
2022/07/23 04:15:44;;;;;;;;;;;21.90;60.90;;;21.30;56.39;96457.56;4233968;33;19967;-82
2022/07/23 04:18:12;;;;;;;;;;;21.90;60.70;;;21.31;56.18;96464.78;4233408;33;19925;-83
2022/07/23 04:20:49;;;;;;;;;;;21.90;60.70;;;21.34;56.28;96468.88;4233756;33;19964;-83
2022/07/23 04:23:20;;;;;;;;;;;21.90;60.50;;;21.35;56.18;96467.75;4233779;33;19902;-83
2022/07/23 04:25:49;;;;;;;;;;;21.90;60.40;;;21.36;56.63;96469.38;4233981;33;19909;-83
2022/07/23 04:28:18;;;;;;;;;;;22.00;60.70;;;21.39;56.55;96476.22;4232361;33;19944;-83
2022/07/23 04:30:47;;;;;;;;;;;22.00;60.90;;;21.42;56.84;96464.44;4233699;33;19910;-83
2022/07/23 04:33:17;;;;;;;;;;;22.00;61.20;;;21.43;57.03;96466.03;4210262;33;19909;-83
2022/07/23 04:35:48;;;;;;;;;;;22.00;61.50;;;21.43;57.26;96466.88;4210260;33;19953;-83
2022/07/23 04:38:23;;;;;;;;;;;22.00;61.70;;;21.45;57.40;96464.56;4233360;33;20340;-83
2022/07/23 04:40:54;;;;;;;;;;;22.10;61.90;;;21.48;57.49;96465.06;4210042;33;19921;-82
2022/07/23 04:43:22;;;;;;;;;;;22.10;61.80;;;21.51;57.69;96467.16;4233578;33;19902;-82
2022/07/23 04:45:53;;;;;;;;;;;22.10;62.00;;;21.51;57.39;96464.38;4210093;33;20169;-82
2022/07/23 04:48:21;;;;;;;;;;;22.10;62.20;;;21.54;57.67;96460.91;4233895;33;20217;-82
2022/07/23 04:50:55;;;;;;;;;;;22.20;62.30;;;21.55;57.94;96470.91;4205203;33;20090;-82
2022/07/23 04:53:32;;;;;;;;;;;22.10;62.40;;;21.58;57.94;96471.03;4182185;33;20226;-83
2022/07/23 04:56:02;;;;;;;;;;;22.10;62.40;;;21.60;57.76;96462.41;4205499;33;19910;-83
2022/07/23 04:58:32;;;;;;;;;;;22.20;62.50;;;21.62;57.86;96468.47;4181847;33;19903;-83
2022/07/23 05:01:01;;;;;;;;;;;22.20;62.60;;;21.63;57.83;96470.06;4181987;33;20086;-82
2022/07/23 05:03:32;;;;;;;;;;;22.20;62.60;;;21.66;58.13;96474.16;4205275;33;20121;-83
2022/07/23 05:06:00;;;;;;;;;;;22.30;62.60;;;21.68;57.70;96475.44;4205246;33;19910;-82
2022/07/23 05:08:31;;;;;;;;;;;22.30;62.50;;;21.70;57.66;96475.94;4204731;33;20119;-82
2022/07/23 05:11:00;;;;;;;;;;;22.30;62.30;;;21.72;57.23;96468.06;4182018;33;19903;-83
2022/07/23 05:13:30;;;;;;;;;;;22.30;61.80;;;21.74;57.85;96468.53;4182084;33;20183;-83
2022/07/23 05:15:59;;;;;;;;;;;22.30;62.10;;;21.75;58.09;96478.50;4182063;33;20142;-83
2022/07/23 05:18:28;;;;;;;;;;;22.30;62.00;;;21.77;57.59;96476.22;4181529;33;19926;-83
2022/07/23 05:20:57;;;;;;;;;;;22.30;61.90;;;21.77;57.66;96476.22;4205961;33;20031;-83
2022/07/23 05:23:25;;;;;;;;;;;22.40;62.00;;;21.79;57.73;96469.50;4182029;33;20083;-83
2022/07/23 05:25:56;;;;;;;;;;;22.40;62.10;;;21.80;57.57;96462.75;4181924;33;20338;-82
2022/07/23 05:28:26;;;;;;;;;;;22.40;62.10;;;21.79;57.80;96478.69;4204579;33;19902;-83
2022/07/23 05:30:56;;;;;;;;;;;22.40;62.10;;;21.79;57.76;96472.28;4205017;33;19903;-84
2022/07/23 05:33:25;;;;;;;;;;;22.40;62.00;;;21.79;57.92;96472.28;4205107;33;19902;-84
2022/07/23 05:35:55;;;;;;;;;;;22.40;62.00;;;21.80;57.96;96471.13;4204964;33;20122;-84
2022/07/23 05:38:32;;;;;;;;;;;22.40;62.00;;;21.82;57.62;96469.63;4181047;33;19917;-83
2022/07/23 05:41:03;;;;;;;;;;;22.40;62.10;;;21.83;57.63;96467.66;4181587;33;19910;-84
2022/07/23 05:43:32;;;;;;;;;;;22.40;62.00;;;21.85;57.67;96476.50;4204587;33;20098;-84
2022/07/23 05:46:04;;;;;;;;;;;22.40;61.80;;;21.86;57.21;96475.34;4204536;33;20047;-84
2022/07/23 05:48:34;;;;;;;;;;;22.50;61.70;;;21.87;57.09;96472.22;4204511;33;19910;-84
2022/07/23 05:51:10;;;;;;;;;;;22.50;61.40;;;21.89;57.48;96467.13;4214637;33;20086;-84
2022/07/23 05:53:39;;;;;;;;;;;22.50;61.70;;;21.92;57.40;96462.84;4232947;33;20244;-84
2022/07/23 05:56:22;;;;;;;;;;;22.50;61.80;;;21.96;57.36;96465.75;4204561;33;19903;-85
2022/07/23 05:58:51;;;;;;;;;;;22.50;61.70;;;21.98;57.23;96464.28;4204210;33;19910;-84
2022/07/23 06:01:21;;;;;;;;;;;22.60;61.60;;;22.01;57.27;96463.59;4204741;33;19965;-83
2022/07/23 06:04:04;;;;;;;;;;;22.60;61.70;;;22.04;57.12;96468.50;4204191;33;23070;-83
2022/07/23 06:06:37;;;;;;;;;;;22.60;61.40;;;22.07;57.39;96473.41;4204802;33;20485;-83
2022/07/23 06:09:08;;;;;;;;;;;22.70;61.60;;;22.11;56.89;96472.72;4204265;33;19910;-82
2022/07/23 06:11:38;;;;;;;;;;;22.70;61.40;;;22.13;56.80;96464.84;4204724;33;20130;-84
2022/07/23 06:14:08;;;;;;;;;;;22.70;61.50;;;22.14;56.87;96461.72;4204476;33;19983;-83
2022/07/23 06:16:57;;;;;;;;;;;22.70;61.30;;;22.15;57.08;96459.72;4205184;33;19903;-83
2022/07/23 06:19:25;;;;;;;;;;;22.80;61.30;;;22.15;57.07;96454.97;4184374;33;20178;-84
2022/07/23 06:21:54;;;;;;;;;;;22.80;61.20;;;22.16;57.35;96444.63;4232691;33;19902;-82
2022/07/23 06:24:23;;;;;;;;;;;22.80;61.30;;;22.17;57.01;96449.88;4232574;33;19902;-83
2022/07/23 06:26:53;;;;;;;;;;;22.80;61.20;;;22.19;56.98;96455.94;4232751;33;19910;-82
2022/07/23 06:29:22;;;;;;;;;;;22.80;61.10;;;22.21;56.82;96450.00;4231918;33;19902;-82
2022/07/23 06:31:50;;;;;;;;;;;22.80;61.20;;;22.22;56.96;96446.88;4232680;33;19902;-83
2022/07/23 06:34:19;;;;;;;;;;;22.80;61.20;;;22.26;56.79;96446.19;4232663;33;20114;-83
2022/07/23 06:36:48;;;;;;;;;;;22.90;61.20;;;22.26;56.76;96440.63;4233536;33;20375;-83
2022/07/23 06:39:16;;;;;;;;;;;22.90;61.10;;;22.28;56.76;96430.75;4232182;33;19910;-83
2022/07/23 06:41:49;;;;;;;;;;;22.90;61.10;;;22.29;56.83;96435.16;4232364;33;19909;-83
2022/07/23 06:44:20;;;;;;;;;;;22.90;61.10;;;22.31;56.66;96427.28;4232536;33;20110;-83
2022/07/23 06:46:51;;;;;;;;;;;22.90;61.10;;;22.31;56.50;96432.06;4209188;33;20156;-83
2022/07/23 06:49:19;;;;;;;;;;;22.90;61.00;;;22.32;56.88;96428.91;4232004;33;19953;-83
2022/07/23 06:51:48;;;;;;;;;;;22.90;60.90;;;22.33;56.55;96430.53;4234708;33;20122;-83
2022/07/23 06:54:16;;;;;;;;;;;22.90;60.90;;;22.35;56.77;96425.44;4234905;33;19902;-84
2022/07/23 06:56:45;;;;;;;;;;;23.00;60.90;;;22.38;56.44;96421.97;4211189;33;19902;-83
2022/07/23 06:59:28;;;;;;;;;;;23.00;60.80;;;22.41;56.62;96428.00;4235303;33;19910;-83
2022/07/23 07:01:57;;;;;;;;;;;23.00;60.80;;;22.43;56.69;96423.78;4211075;33;20217;-83
2022/07/23 07:04:26;;;;;;;;;;;23.00;60.70;;;22.44;56.30;96422.59;4234726;33;19902;-83
2022/07/23 07:06:54;;;;;;;;;;;23.00;60.60;;;22.48;56.23;96425.53;4235615;33;19902;-84
2022/07/23 07:09:23;;;;;;;;;;;23.00;60.60;;;22.50;56.13;96420.41;4235345;33;20119;-83
2022/07/23 07:11:51;;;;;;;;;;;23.00;60.50;;;22.53;56.45;96422.50;4234577;33;20123;-83
2022/07/23 07:14:20;;;;;;;;;;;23.10;60.60;;;22.56;56.03;96426.59;4211193;33;20085;-82
2022/07/23 07:16:50;;;;;;;;;;;23.10;60.50;;;22.57;56.11;96431.81;4235486;33;19902;-83
2022/07/23 07:19:18;;;;;;;;;;;23.10;60.50;;;22.59;56.23;96425.91;4234122;33;19910;-83
2022/07/23 07:21:47;;;;;;;;;;;23.10;60.40;;;22.60;55.90;96428.34;4234556;33;20156;-83
2022/07/23 07:24:15;;;;;;;;;;;23.20;61.10;;;22.62;55.66;96425.22;4235507;33;20218;-83
2022/07/23 07:26:44;;;;;;;;;;;23.20;60.10;;;22.63;55.79;96418.47;4234440;33;19970;-83
2022/07/23 07:29:12;;;;;;;;;;;23.20;60.10;;;22.63;56.10;96424.88;4235039;33;20320;-82
2022/07/23 07:31:41;;;;;;;;;;;23.20;60.10;;;22.63;55.87;96422.09;4234602;33;19903;-83
2022/07/23 07:34:11;;;;;;;;;;;23.20;60.00;;;22.65;55.66;96425.34;4235497;33;20354;-82
2022/07/23 07:36:40;;;;;;;;;;;23.20;59.90;;;22.66;55.70;96420.59;4235375;33;19909;-83
2022/07/23 07:39:10;;;;;;;;;;;23.20;60.00;;;22.65;56.05;96425.34;4210481;33;20310;-83
2022/07/23 07:41:38;;;;;;;;;;;23.20;59.90;;;22.66;55.56;96410.22;4235058;33;19902;-83
2022/07/23 07:44:07;;;;;;;;;;;23.20;60.00;;;22.66;55.65;96418.59;4235326;33;20104;-83
2022/07/23 07:46:36;;;;;;;;;;;23.20;59.90;;;22.66;55.80;96413.00;4235156;33;20000;-84
2022/07/23 07:49:04;;;;;;;;;;;23.20;59.90;;;22.67;55.76;96416.63;4210463;33;20322;-84
2022/07/23 07:51:34;;;;;;;;;;;23.20;60.00;;;22.66;55.71;96409.41;4233973;33;20152;-83
2022/07/23 07:54:02;;;;;;;;;;;23.20;60.00;;;22.66;55.68;96415.81;4234174;33;19903;-84
2022/07/23 07:56:31;;;;;;;;;;;23.20;59.90;;;22.65;55.69;96417.00;4210559;33;19994;-83
2022/07/23 07:59:00;;;;;;;;;;;23.20;60.00;;;22.65;55.93;96419.78;4233788;33;20121;-83
2022/07/23 08:01:29;;;;;;;;;;;23.20;60.00;;;22.66;55.64;96409.41;4233505;33;19972;-82
2022/07/23 08:03:58;;;;;;;;;;;23.20;60.00;;;22.66;55.76;96415.00;4234027;33;19902;-84
2022/07/23 08:06:26;;;;;;;;;;;23.20;60.00;;;22.67;56.02;96411.84;4234946;33;19902;-83
2022/07/23 08:08:56;;;;;;;;;;;23.20;59.90;;;22.69;55.63;96411.53;4233624;33;20371;-83
2022/07/23 08:11:25;;;;;;;;;;;23.30;60.00;;;22.70;55.81;96409.53;4233921;33;19903;-82
2022/07/23 08:13:53;;;;;;;;;;;23.30;60.00;;;22.68;55.63;96413.50;4234025;33;19909;-83
2022/07/23 08:16:22;;;;;;;;;;;23.30;60.00;;;22.70;56.01;96406.75;4234851;33;19909;-84
2022/07/23 08:18:50;;;;;;;;;;;23.30;60.00;;;22.70;55.60;96406.75;4234584;33;19902;-83
2022/07/23 08:21:19;;;;;;;;;;;23.30;59.90;;;22.70;55.60;96403.97;4234832;33;19981;-83
2022/07/23 08:23:47;;;;;;;;;;;23.30;60.00;;;22.70;55.47;96403.97;4233902;33;19902;-82
2022/07/23 08:26:17;;;;;;;;;;;23.30;59.90;;;22.69;55.95;96403.16;4233789;33;19910;-84
2022/07/23 08:28:46;;;;;;;;;;;23.20;59.80;;;22.68;55.93;96405.13;4233305;33;19903;-83
2022/07/23 08:31:16;;;;;;;;;;;23.30;59.90;;;22.67;55.72;96411.84;4233563;33;19902;-83
2022/07/23 08:33:44;;;;;;;;;;;23.30;59.90;;;22.67;56.03;96406.28;4233761;33;19903;-83
2022/07/23 08:36:13;;;;;;;;;;;23.20;59.90;;;22.65;55.80;96400.25;4234649;33;20062;-83
2022/07/23 08:38:43;;;;;;;;;;;23.30;60.10;;;22.65;56.16;96403.03;4234240;33;20159;-83
2022/07/23 08:41:11;;;;;;;;;;;23.20;60.00;;;22.63;56.12;96402.56;4234626;33;19966;-83
2022/07/23 08:43:42;;;;;;;;;;;23.20;60.00;;;22.63;56.21;96405.34;4233802;33;19902;-83
2022/07/23 08:46:11;;;;;;;;;;;23.20;60.00;;;22.62;56.23;96403.72;4233514;33;19902;-83
2022/07/23 08:48:39;;;;;;;;;;;23.20;60.10;;;22.62;56.28;96400.94;4233211;33;20070;-84
2022/07/23 08:51:10;;;;;;;;;;;23.20;60.10;;;22.62;56.39;96400.94;4234545;33;20329;-83
2022/07/23 08:53:40;;;;;;;;;;;23.20;60.20;;;22.61;56.15;96399.28;4233605;33;19903;-83
2022/07/23 08:56:10;;;;;;;;;;;23.20;60.20;;;22.60;56.20;96400.44;4233493;33;19909;-83
2022/07/23 08:58:38;;;;;;;;;;;23.20;60.20;;;22.59;56.30;96398.81;4233151;33;20167;-83
2022/07/23 09:01:08;;;;;;;;;;;23.20;60.30;;;22.59;56.25;96393.25;4233104;33;20268;-83
2022/07/23 09:03:39;;;;;;;;;;;23.20;60.30;;;22.60;56.08;96397.66;4234418;33;19945;-84
2022/07/23 09:06:08;;;;;;;;;;;23.20;60.40;;;22.58;56.35;96390.81;4233484;33;20052;-83
2022/07/23 09:08:38;;;;;;;;;;;23.20;60.40;;;22.58;56.40;96388.81;4233972;33;20084;-83
2022/07/23 09:11:08;;;;;;;;;;;23.20;60.40;;;22.58;56.12;96385.22;4234352;33;19904;-83
2022/07/23 09:13:40;;;;;;;;;;;23.20;60.40;;;22.58;56.63;96380.44;4209412;33;19902;-83
2022/07/23 09:16:12;;;;;;;;;;;23.20;60.50;;;22.58;56.48;96379.66;4233389;33;19909;-83
2022/07/23 09:18:44;;;;;;;;;;;23.20;60.50;;;22.58;56.22;96380.44;4233768;33;19902;-84
2022/07/23 09:21:22;;;;;;;;;;;23.20;60.50;;;22.58;56.63;96380.44;4209775;33;20021;-84
2022/07/23 09:23:57;;;;;;;;;;;23.20;60.50;;;22.58;56.39;96376.84;4209507;33;19903;-84
2022/07/23 09:26:44;;;;;;;;;;;23.20;60.60;;;22.58;56.28;96374.06;4232907;33;19909;-84
2022/07/23 09:29:25;;;;;;;;;;;23.20;60.50;;;22.59;56.11;96381.28;4232663;33;19902;-83
2022/07/23 09:32:59;;;;;;;;;;;23.20;60.60;;;22.59;56.53;96376.50;4234120;33;19902;-83
2022/07/23 09:35:45;;;;;;;;;;;23.20;60.60;;;22.59;56.17;96373.72;4204948;33;19910;-84
2022/07/23 09:38:14;;;;;;;;;;;23.20;60.60;;;22.60;56.55;96375.34;4204496;33;19909;-84
2022/07/23 09:40:43;;;;;;;;;;;23.20;60.60;;;22.60;56.64;96364.19;4204943;33;19914;-83
2022/07/23 09:43:12;;;;;;;;;;;23.20;61.40;;;22.59;56.35;96367.31;4204775;33;19903;-83
2022/07/23 09:45:41;;;;;;;;;;;23.20;60.60;;;22.60;56.54;96366.97;4205836;33;19903;-84
2022/07/23 09:48:14;;;;;;;;;;;23.20;60.60;;;22.61;56.69;96367.78;4204394;33;20111;-84
2022/07/23 09:50:44;;;;;;;;;;;23.20;60.60;;;22.59;56.30;96362.53;4209004;33;19906;-84
2022/07/23 09:53:24;;;;;;;;;;;23.20;60.50;;;22.60;56.59;96355.81;4233840;33;19925;-84
2022/07/23 09:55:53;;;;;;;;;;;23.20;60.60;;;22.60;56.58;96354.97;4232992;33;19902;-84
2022/07/23 09:58:22;;;;;;;;;;;23.20;60.60;;;22.60;56.37;96355.81;4232188;33;19909;-83
2022/07/23 10:00:51;;;;;;;;;;;23.20;60.60;;;22.61;56.60;96356.59;4233649;33;19909;-84
2022/07/23 10:03:19;;;;;;;;;;;23.20;60.60;;;22.60;56.39;96350.22;4232893;33;19991;-84
2022/07/23 10:06:24;;;;;;;;;;;23.20;60.60;;;22.61;56.66;96351.03;4232653;33;19979;-84
2022/07/23 10:09:12;;;;;;;;;;;23.20;60.60;;;22.60;56.37;96347.44;4233312;33;20039;-84
2022/07/23 10:14:58;;;;;;;;;;;23.20;60.70;;;22.60;56.63;96338.22;4230043;33;19909;-85
2022/07/23 10:17:29;;;;;;;;;;;23.20;60.60;;;22.60;56.59;96339.06;4233538;33;19917;-85
2022/07/23 10:19:58;;;;;;;;;;;23.20;60.60;;;22.59;56.45;96337.44;4232509;33;19902;-85
2022/07/23 10:22:32;;;;;;;;;;;23.20;60.70;;;22.60;56.48;96329.88;4233645;33;20342;-84
2022/07/23 10:25:09;;;;;;;;;;;23.20;60.70;;;22.59;56.47;96331.84;4234469;33;20089;-84
2022/07/23 10:28:05;;;;;;;;;;;23.20;60.70;;;22.60;56.53;96327.91;4234778;33;19902;-84
2022/07/23 10:30:42;;;;;;;;;;;23.20;60.80;;;22.58;56.46;96327.44;4235174;33;20071;-85
2022/07/23 10:33:26;;;;;;;;;;;23.20;60.80;;;22.59;57.01;96331.06;4235176;33;20102;-84
2022/07/23 10:36:00;;;;;;;;;;;23.20;60.90;;;22.58;56.83;96319.06;4207086;33;20090;-84
2022/07/23 10:38:33;;;;;;;;;;;23.20;60.90;;;22.58;56.66;96309.91;4206478;33;19910;-85
2022/07/23 10:41:03;;;;;;;;;;;23.20;60.90;;;22.58;56.51;96318.25;4207002;33;19903;-84
2022/07/23 10:43:31;;;;;;;;;;;23.20;60.90;;;22.58;57.02;96312.69;4230347;33;20057;-84
2022/07/23 10:46:28;;;;;;;;;;;23.20;61.00;;;22.58;56.69;96307.09;4207860;33;20122;-85
2022/07/23 10:49:26;;;;;;;;;;;23.20;60.90;;;22.57;56.96;96306.28;4207235;33;19902;-84
2022/07/23 10:52:26;;;;;;;;;;;23.20;61.00;;;22.57;56.76;96300.69;4201654;33;20292;-85
2022/07/23 10:54:57;;;;;;;;;;;23.20;61.00;;;22.57;56.74;96292.31;4258842;33;20155;-85
2022/07/23 10:57:26;;;;;;;;;;;23.20;61.00;;;22.56;57.07;96304.63;4234942;33;20056;-87
2022/07/23 11:00:32;;;;;;;;;;;23.20;61.10;;;22.57;57.03;96300.69;4234471;33;19910;-84
2022/07/23 11:03:02;;;;;;;;;;;23.20;61.10;;;22.56;56.86;96296.28;4235734;33;20038;-85
2022/07/23 11:05:42;;;;;;;;;;;23.20;61.10;;;22.56;56.89;96290.69;4235792;33;19946;-85
2022/07/23 11:08:19;;;;;;;;;;;23.20;61.10;;;22.57;56.81;96283.94;4234971;33;19903;-86
2022/07/23 11:10:52;;;;;;;;;;;23.20;61.10;;;22.55;56.98;96286.28;4210869;33;20154;-85
2022/07/23 11:13:36;;;;;;;;;;;23.20;61.10;;;22.56;57.06;96285.09;4234491;33;19902;-85
2022/07/23 11:16:22;;;;;;;;;;;23.20;61.10;;;22.56;56.82;96281.53;4235725;33;19917;-85
2022/07/23 11:19:07;;;;;;;;;;;23.20;61.10;;;22.56;56.82;96287.09;4210797;33;20020;-85
2022/07/23 11:21:57;;;;;;;;;;;23.20;61.20;;;22.57;56.64;96288.72;4211049;33;20438;-85
2022/07/23 11:24:25;;;;;;;;;;;23.20;61.20;;;22.57;56.92;96283.16;4234598;33;19910;-85
2022/07/23 11:27:01;;;;;;;;;;;23.20;61.20;;;22.56;57.20;96273.94;4211015;33;20009;-85
2022/07/23 11:29:57;;;;;;;;;;;23.20;61.30;;;22.56;56.78;96276.75;4210573;33;20022;-85
2022/07/23 11:32:42;;;;;;;;;;;23.20;61.20;;;22.56;57.08;96273.94;4235465;33;19908;-85
2022/07/23 11:35:25;;;;;;;;;;;23.20;61.30;;;22.57;57.03;96269.19;4234633;33;19909;-86
2022/07/23 11:37:58;;;;;;;;;;;23.20;61.30;;;22.57;57.36;96267.22;4234590;33;19910;-86
2022/07/23 11:40:27;;;;;;;;;;;23.20;61.40;;;22.57;56.99;96266.41;4210942;33;20117;-85